Time;durP1;ratioP1;P1;durP2;ratioP2;P2;SDS_P1;SDS_P2;PMS_P1;PMS_P2;Temp;Humidity;BMP_temperature;BMP_pressure;BME280_temperature;BME280_humidity;BME280_pressure;Samples;Min_cycle;Max_cycle;Signal;HPM_P1;HPM_P2
2023/10/17 00:02:19;;;;;;;33.00;20.23;;;;;;;;;;10538724;28;20237;-90
2023/10/17 00:07:22;;;;;;;39.33;22.13;;;;;;;;;;10539074;28;20256;-89
2023/10/17 00:12:39;;;;;;;35.80;21.13;;;2.50;99.90;;;;;;10537798;28;20245;-91
2023/10/17 00:17:41;;;;;;;34.33;20.00;;;2.40;99.90;;;;;;10539370;28;20213;-91
2023/10/17 00:22:44;;;;;;;34.43;20.50;;;;;;;;;;10537731;28;20239;-92
2023/10/17 00:27:47;;;;;;;35.93;20.13;;;;;;;;;;10538759;28;20306;-92
2023/10/17 00:32:51;;;;;;;43.97;23.17;;;;;;;;;;10538422;28;20279;-91
2023/10/17 00:37:56;;;;;;;28.43;17.10;;;;;;;;;;10536980;28;20349;-91
2023/10/17 00:43:00;;;;;;;36.10;20.67;;;;;;;;;;10536454;28;20227;-91
2023/10/17 00:48:08;;;;;;;47.70;23.60;;;;;;;;;;10537343;28;20206;-91
2023/10/17 00:53:11;;;;;;;55.93;27.63;;;;;;;;;;10536094;28;20229;-91
2023/10/17 00:58:14;;;;;;;46.13;25.20;;;;;;;;;;10537114;28;20206;-91
2023/10/17 01:03:17;;;;;;;37.70;22.47;;;;;;;;;;10536377;28;20267;-91
2023/10/17 01:08:20;;;;;;;46.07;25.80;;;;;;;;;;10537069;28;20233;-92
2023/10/17 01:13:26;;;;;;;37.30;23.17;;;;;;;;;;10518746;28;20682;-91
2023/10/17 01:18:31;;;;;;;45.13;24.90;;;;;;;;;;10534941;28;20298;-91
2023/10/17 01:23:34;;;;;;;44.83;24.63;;;;;;;;;;10534663;28;20230;-92
2023/10/17 01:28:37;;;;;;;49.20;23.00;;;;;;;;;;10535712;28;20311;-92
2023/10/17 01:33:42;;;;;;;39.33;21.07;;;;;;;;;;10533792;28;20228;-91
2023/10/17 01:38:46;;;;;;;37.73;20.70;;;;;;;;;;10535198;28;20233;-92
2023/10/17 01:43:50;;;;;;;45.73;23.40;;;;;;;;;;10535568;28;20225;-92
2023/10/17 01:48:55;;;;;;;40.87;21.53;;;;;;;;;;10533155;28;20201;-92
2023/10/17 01:53:58;;;;;;;36.47;20.00;;;;;;;;;;10533273;28;20282;-91
2023/10/17 01:59:12;;;;;;;40.90;22.17;;;;;;;;;;10534038;28;20229;-91
2023/10/17 02:04:18;;;;;;;34.63;19.80;;;;;;;;;;10532566;28;20579;-92
2023/10/17 02:09:44;;;;;;;31.67;19.00;;;;;;;;;;10532802;28;20256;-92
2023/10/17 02:14:49;;;;;;;36.50;20.47;;;;;;;;;;10491932;28;20225;-91
2023/10/17 02:19:53;;;;;;;36.30;18.63;;;;;;;;;;10489983;28;20273;-92
2023/10/17 02:24:57;;;;;;;26.67;17.23;;;;;;;;;;10491323;28;20242;-91
2023/10/17 02:30:00;;;;;;;35.47;19.10;;;;;;;;;;10510891;28;20261;-91
2023/10/17 02:35:03;;;;;;;33.33;19.40;;;;;;;;;;10532225;28;20237;-91
2023/10/17 02:40:16;;;;;;;32.40;18.60;;;;;;;;;;10531671;28;20233;-92
2023/10/17 02:45:26;;;;;;;30.53;17.67;;;;;;;;;;10532795;28;20294;-92
2023/10/17 02:55:35;;;;;;;33.00;18.33;;;;;;;;;;10530414;28;20210;-92
2023/10/17 03:00:44;;;;;;;31.97;17.93;;;1.60;99.90;;;;;;10531617;28;20221;-92
2023/10/17 03:05:53;;;;;;;29.10;17.67;;;1.60;99.90;;;;;;10532702;28;20265;-92
2023/10/17 03:11:00;;;;;;;27.90;17.20;;;;;;;;;;10530832;28;20257;-91
2023/10/17 03:16:26;;;;;;;33.63;16.67;;;;;;;;;;10539587;28;20659;-91
2023/10/17 03:21:35;;;;;;;34.83;20.30;;;;;;;;;;10539033;28;20642;-91
2023/10/17 03:26:54;;;;;;;26.57;17.53;;;;;;;;;;10522554;28;20699;-93
2023/10/17 03:32:03;;;;;;;32.07;18.23;;;;;;;;;;10540324;28;20265;-91
2023/10/17 03:47:47;;;;;;;25.93;16.50;;;;;;;;;;10539214;28;20259;-92
2023/10/17 03:52:54;;;;;;;32.70;18.03;;;;;;;;;;10540133;28;20241;-92
2023/10/17 03:57:59;;;;;;;25.70;16.90;;;;;;;;;;10539018;28;20206;-92
2023/10/17 04:03:08;;;;;;;24.10;15.13;;;;;;;;;;10539399;28;20225;-91
2023/10/17 04:08:11;;;;;;;32.50;17.63;;;;;;;;;;10537593;28;20298;-92
2023/10/17 04:13:34;;;;;;;33.60;18.30;;;;;;;;;;10538426;28;20300;-92
2023/10/17 04:18:37;;;;;;;29.70;18.47;;;;;;;;;;10538053;28;20247;-92
2023/10/17 04:23:42;;;;;;;38.60;19.60;;;;;;;;;;10537676;28;20245;-92
2023/10/17 04:28:49;;;;;;;54.33;22.93;;;;;;;;;;10539350;28;20225;-92
2023/10/17 04:34:06;;;;;;;45.20;19.80;;;;;;;;;;10537545;28;20249;-91
2023/10/17 04:39:18;;;;;;;41.77;18.20;;;;;;;;;;10536853;28;20255;-91
2023/10/17 04:44:25;;;;;;;31.47;15.73;;;;;;;;;;10536692;28;20294;-92
2023/10/17 04:49:35;;;;;;;50.10;22.03;;;;;;;;;;10538637;28;20194;-92
2023/10/17 04:59:51;;;;;;;40.70;19.60;;;;;;;;;;10538070;28;20311;-92
2023/10/17 06:20:00;;;;;;;39.30;23.73;;;;;;;;;;10532688;28;20879;-92
2023/10/17 06:30:27;;;;;;;45.10;25.03;;;;;;;;;;10527341;28;20374;-89
2023/10/17 06:35:31;;;;;;;44.23;25.03;;;;;;;;;;10530498;28;20225;-90
2023/10/17 06:40:38;;;;;;;40.63;23.90;;;;;;;;;;10532401;28;20700;-90
2023/10/17 06:45:52;;;;;;;34.30;21.57;;;;;;;;;;10532848;28;20239;-89
2023/10/17 06:56:21;;;;;;;56.47;31.23;;;;;;;;;;10530749;28;20286;-88
2023/10/17 07:01:24;;;;;;;60.93;33.83;;;;;;;;;;10530509;28;20625;-87
2023/10/17 07:06:29;;;;;;;53.77;31.37;;;;;;;;;;10530294;28;20262;-87
2023/10/17 07:11:35;;;;;;;84.90;43.30;;;;;;;;;;10531925;28;20249;-87
2023/10/17 07:16:42;;;;;;;70.17;38.43;;;;;;;;;;10530343;28;20222;-87
2023/10/17 07:22:05;;;;;;;84.30;43.23;;;;;;;;;;10531900;28;20241;-87
2023/10/17 07:27:26;;;;;;;53.00;32.87;;;;;;;;;;10532661;28;20237;-87
2023/10/17 07:32:33;;;;;;;75.27;41.30;;;;;;;;;;10532165;28;20767;-85
2023/10/17 07:37:48;;;;;;;79.30;41.27;;;;;;;;;;10513843;28;20262;-85
2023/10/17 07:42:55;;;;;;;65.47;37.70;;;;;;;;;;10530364;28;20322;-85
2023/10/17 07:48:01;;;;;;;78.30;41.43;;;;;;;;;;10531146;28;20286;-85
2023/10/17 07:53:06;;;;;;;59.53;36.17;;;;;;;;;;10530221;28;20248;-85
2023/10/17 07:58:17;;;;;;;60.73;34.23;;;;;;;;;;10530943;28;20230;-85
2023/10/17 08:03:20;;;;;;;68.33;37.67;;;;;;;;;;10537942;28;20295;-85
2023/10/17 08:08:23;;;;;;;42.10;21.93;;;;;;;;;;10539265;28;20244;-85
2023/10/17 08:13:28;;;;;;;35.30;19.73;;;;;;;;;;10539500;28;20246;-85
2023/10/17 08:18:39;;;;;;;34.60;19.97;;;;;;;;;;10537811;28;20666;-85
2023/10/17 08:23:46;;;;;;;31.43;18.93;;;;;;;;;;10538265;28;20233;-85
2023/10/17 08:28:51;;;;;;;35.93;19.27;;;;;;;;;;10520554;28;20225;-85
2023/10/17 08:39:26;;;;;;;34.37;20.53;;;;;;;;;;10537765;28;20244;-86
2023/10/17 08:44:30;;;;;;;26.53;16.77;;;;;;;;;;10538017;28;20287;-85
2023/10/17 08:49:32;;;;;;;27.87;18.40;;;;;;;;;;10537223;28;20297;-85
2023/10/17 08:54:37;;;;;;;31.27;18.77;;;;;;;;;;10537784;28;20314;-85
2023/10/17 09:04:49;;;;;;;28.70;18.40;;;;;;;;;;10534865;28;20263;-85
2023/10/17 09:10:02;;;;;;;28.13;15.97;;;;;;;;;;10535014;28;20638;-85
2023/10/17 09:15:16;;;;;;;22.87;15.93;;;;;;;;;;10536766;28;20302;-86
2023/10/17 09:20:35;;;;;;;17.67;11.57;;;;;;;;;;10535331;28;20219;-85
2023/10/17 09:25:41;;;;;;;23.03;11.27;;;;;;;;;;10535530;28;20298;-85
2023/10/17 09:30:56;;;;;;;22.80;12.97;;;;;;;;;;10534317;28;20703;-85
2023/10/17 09:36:04;;;;;;;23.60;15.30;;;;;;;;;;10535510;28;20282;-85
2023/10/17 09:41:08;;;;;;;21.70;12.63;;;;;;;;;;10533298;28;20238;-85
2023/10/17 09:46:28;;;;;;;16.13;10.40;;;;;;;;;;10534783;28;20621;-84
2023/10/17 09:51:34;;;;;;;25.27;14.07;;;;;;;;;;10533705;28;20247;-85
2023/10/17 09:56:42;;;;;;;18.17;10.00;;;;;;;;;;10534627;28;20233;-85
2023/10/17 10:01:49;;;;;;;18.03;10.50;;;;;;;;;;10533833;28;20221;-86
2023/10/17 10:07:14;;;;;;;15.20;9.60;;;;;;;;;;10528788;28;20695;-87
2023/10/17 10:12:19;;;;;;;20.33;8.07;;;;;;;;;;10533772;28;20252;-86
2023/10/17 10:17:41;;;;;;;9.57;5.07;;;;;;;;;;10532816;28;20425;-86
2023/10/17 10:22:52;;;;;;;18.90;7.03;;;;;;;;;;10533599;28;20294;-87
2023/10/17 10:28:16;;;;;;;16.07;6.87;;;;;;;;;;10532532;28;20231;-86
2023/10/17 10:33:21;;;;;;;6.70;4.13;;;;;;;;;;10514714;28;20739;-87
2023/10/17 10:38:30;;;;;;;19.30;6.87;;;;;;;;;;10533149;28;20660;-87
2023/10/17 10:43:34;;;;;;;12.40;6.00;;;;;;;;;;10532985;28;20258;-86
2023/10/17 10:48:47;;;;;;;13.33;6.73;;;;;;;;;;10540824;28;20255;-86
2023/10/17 10:53:56;;;;;;;10.67;5.97;;;;;;;;;;10533049;28;20646;-87
2023/10/17 10:59:02;;;;;;;10.17;5.13;;;;;;;;;;10531722;28;20221;-86
2023/10/17 11:04:07;;;;;;;11.97;7.93;;;;;;;;;;10530823;28;20248;-86
2023/10/17 11:09:16;;;;;;;12.47;6.47;;;;;;;;;;10530629;28;20302;-86
2023/10/17 11:14:20;;;;;;;15.20;6.33;;;;;;;;;;10530747;28;20244;-86
2023/10/17 11:19:24;;;;;;;9.07;5.83;;;;;;;;;;10532102;28;20279;-86
2023/10/17 11:24:29;;;;;;;8.90;5.37;;;;;;;;;;10530658;28;20241;-87
2023/10/17 11:29:35;;;;;;;10.00;6.03;;;;;;;;;;10511772;28;20252;-86
2023/10/17 11:34:39;;;;;;;10.33;6.77;;;;;;;;;;10528097;28;20715;-86
2023/10/17 11:39:46;;;;;;;5.13;2.77;;;;;;;;;;10521777;28;20248;-86
2023/10/17 11:44:53;;;;;;;7.97;5.07;;;;;;;;;;10538195;28;20201;-86
2023/10/17 11:49:57;;;;;;;7.47;4.50;;;;;;;;;;10538446;28;20244;-86
2023/10/17 11:55:11;;;;;;;11.80;5.93;;;;;;;;;;10539421;28;20306;-85
2023/10/17 12:05:27;;;;;;;8.23;4.70;;;;;;;;;;10558631;28;20272;-85
2023/10/17 12:10:36;;;;;;;6.53;3.90;;;;;;;;;;10543504;28;20245;-85
2023/10/17 12:15:40;;;;;;;8.57;5.07;;;;;;;;;;10537634;28;20249;-86
2023/10/17 12:20:49;;;;;;;8.13;6.00;;;;;;;;;;10537441;28;20614;-85
2023/10/17 12:25:53;;;;;;;7.60;5.33;;;;;;;;;;10537508;28;20284;-85
2023/10/17 12:30:57;;;;;;;5.43;4.37;;;;;;;;;;10498976;28;20229;-85
2023/10/17 12:36:04;;;;;;;5.93;4.10;;;;;;;;;;10500856;28;20244;-85
2023/10/17 12:41:08;;;;;;;7.73;4.73;;;;;;;;;;10537518;28;20283;-85
2023/10/17 12:46:12;;;;;;;6.50;4.53;;;;;;;;;;10531978;28;20232;-85
2023/10/17 12:51:16;;;;;;;9.77;5.90;;;;;;;;;;10518670;28;20229;-87
2023/10/17 12:56:21;;;;;;;4.87;2.87;;;;;;;;;;10536095;28;20302;-86
2023/10/17 13:01:25;;;;;;;8.23;5.50;;;;;;;;;;10534896;28;20673;-85
2023/10/17 13:06:29;;;;;;;7.83;4.70;;;;;;;;;;10535801;28;20269;-86
2023/10/17 13:11:33;;;;;;;5.17;3.37;;;;;;;;;;10536174;28;20230;-86
2023/10/17 13:16:38;;;;;;;7.17;3.93;;;;;;;;;;10516617;28;20249;-85
2023/10/17 13:21:44;;;;;;;7.03;1.40;;;;;;;;;;10530408;28;20224;-86
2023/10/17 13:26:48;;;;;;;3.73;1.83;;;;;;;;;;10535549;28;20229;-86
2023/10/17 13:31:52;;;;;;;5.67;1.30;;;;;;;;;;10535449;28;20314;-86
2023/10/17 13:36:55;;;;;;;2.57;1.60;;;;;;;;;;10534890;28;20654;-86
2023/10/17 13:42:00;;;;;;;3.13;1.50;;;;;;;;;;10533088;28;20241;-86
2023/10/17 13:47:05;;;;;;;8.70;1.70;;;;;;;;;;10534889;28;20282;-83
2023/10/17 13:52:09;;;;;;;2.97;1.30;;;;;;;;;;10534892;28;20652;-83
2023/10/17 13:57:16;;;;;;;3.17;1.43;;;;;;;;;;10533822;28;20319;-84
2023/10/17 14:02:21;;;;;;;3.93;1.90;;;;;;;;;;10533046;28;20749;-84
2023/10/17 14:07:24;;;;;;;2.83;1.47;;;13.00;91.60;;;;;;10531938;28;20718;-84
2023/10/17 14:12:26;;;;;;;5.03;2.37;;;13.20;82.60;;;;;;10533473;28;20242;-84
2023/10/17 14:17:29;;;;;;;3.80;2.73;;;13.50;88.40;;;;;;10533711;28;20249;-84
2023/10/17 14:22:44;;;;;;;3.13;2.10;;;14.10;92.10;;;;;;10532405;28;20220;-84
2023/10/17 14:27:47;;;;;;;4.27;2.10;;;14.40;80.40;;;;;;10533164;28;20324;-83
2023/10/17 14:32:56;;;;;;;7.93;2.37;;;14.60;90.50;;;;;;10532342;28;20257;-83
2023/10/17 14:38:00;;;;;;;4.00;2.33;;;14.90;87.00;;;;;;10532774;28;20321;-83
2023/10/17 14:43:02;;;;;;;8.47;2.50;;;14.60;78.90;;;;;;10532068;28;20634;-83
2023/10/17 14:48:06;;;;;;;4.40;2.00;;;14.20;81.60;;;;;;10532502;28;20255;-82
2023/10/17 14:53:08;;;;;;;6.13;1.97;;;14.40;85.70;;;;;;10530859;28;20232;-83
2023/10/17 14:58:12;;;;;;;8.43;3.37;;;13.70;76.90;;;;;;10532510;28;20260;-84
2023/10/17 15:03:15;;;;;;;7.50;3.30;;;13.00;80.80;;;;;;10530745;28;20232;-83
2023/10/17 15:08:18;;;;;;;8.80;3.90;;;12.70;81.70;;;;;;10531318;28;20251;-83
2023/10/17 15:13:22;;;;;;;6.63;4.70;;;12.40;85.10;;;;;;10530345;28;20247;-83
2023/10/17 15:18:24;;;;;;;6.80;4.77;;;12.20;87.20;;;;;;10531802;28;20263;-83
2023/10/17 15:23:27;;;;;;;11.00;5.37;;;11.80;89.60;;;;;;10531717;28;20285;-83
2023/10/17 15:28:30;;;;;;;12.70;8.13;;;11.40;92.60;;;;;;10531946;28;20686;-83
2023/10/17 15:33:34;;;;;;;22.97;9.73;;;11.00;95.80;;;;;;10531474;28;20229;-83
2023/10/17 15:38:40;;;;;;;17.97;8.90;;;;;;;;;;10530593;28;20241;-83
2023/10/17 15:43:43;;;;;;;19.50;8.83;;;;;;;;;;10512888;28;20244;-83
2023/10/17 15:48:46;;;;;;;20.03;9.20;;;10.40;99.90;;;;;;10488075;28;20237;-83
2023/10/17 15:53:48;;;;;;;24.77;11.97;;;10.20;99.90;;;;;;10528155;28;20268;-83
2023/10/17 15:58:52;;;;;;;25.83;11.20;;;10.30;99.90;;;;;;10531216;28;20230;-83
2023/10/17 16:03:55;;;;;;;29.37;13.53;;;10.00;99.90;;;;;;10530924;28;20330;-83
2023/10/17 16:08:58;;;;;;;27.47;13.47;;;10.00;99.90;;;;;;10530600;28;20241;-83
2023/10/17 16:14:03;;;;;;;28.97;12.73;;;9.60;99.90;;;;;;10530434;28;20260;-83
2023/10/17 16:19:06;;;;;;;32.33;17.27;;;9.50;99.90;;;;;;10530031;28;20299;-84
2023/10/17 16:24:09;;;;;;;26.93;13.83;;;9.30;99.90;;;;;;10537406;28;20233;-83
2023/10/17 16:29:11;;;;;;;28.40;14.60;;;9.30;99.90;;;;;;10537283;28;20228;-83
2023/10/17 16:34:14;;;;;;;30.13;14.77;;;9.20;99.90;;;;;;10535893;28;20672;-83
2023/10/17 16:39:17;;;;;;;24.20;14.57;;;;;;;;;;10537058;28;20233;-83
2023/10/17 16:44:20;;;;;;;29.80;16.57;;;8.60;99.90;;;;;;10530756;28;20228;-84
2023/10/17 16:49:22;;;;;;;11.40;6.93;;;8.00;99.90;;;;;;10535838;28;20235;-84
2023/10/17 16:54:29;;;;;;;41.20;18.80;;;8.00;99.90;;;;;;10536383;28;20306;-84
2023/10/17 16:59:32;;;;;;;28.40;15.50;;;8.30;99.90;;;;;;10534852;28;20229;-84
2023/10/17 17:04:34;;;;;;;25.20;13.03;;;7.70;99.90;;;;;;10534805;28;20306;-84
2023/10/17 17:09:37;;;;;;;32.27;18.17;;;7.40;99.90;;;;;;10536229;28;20241;-84
2023/10/17 17:14:40;;;;;;;26.27;15.63;;;7.90;99.90;;;;;;10536482;28;20267;-83
2023/10/17 17:19:42;;;;;;;20.60;12.37;;;7.70;99.90;;;;;;10536932;28;20621;-83
2023/10/17 17:24:45;;;;;;;36.37;19.63;;;7.50;99.90;;;;;;10534627;28;20741;-84
2023/10/17 17:29:51;;;;;;;38.37;23.67;;;7.40;99.90;;;;;;10534820;28;20237;-84
2023/10/17 17:34:55;;;;;;;47.30;27.93;;;7.20;99.90;;;;;;10535065;28;20612;-84
2023/10/17 17:39:57;;;;;;;53.87;30.87;;;6.90;99.90;;;;;;10550936;28;20697;-84
2023/10/17 17:45:04;;;;;;;50.10;30.77;;;;;;;;;;10577866;28;20249;-84
2023/10/17 17:50:10;;;;;;;40.23;19.37;;;6.40;99.90;;;;;;10546100;28;20748;-84
2023/10/17 17:55:14;;;;;;;41.50;24.03;;;6.40;99.90;;;;;;10523184;28;20287;-84
2023/10/17 18:00:18;;;;;;;54.13;31.50;;;6.80;99.90;;;;;;10557978;28;20229;-84
2023/10/17 18:05:22;;;;;;;55.00;34.17;;;6.30;99.90;;;;;;10535411;28;20269;-84
2023/10/17 18:10:25;;;;;;;41.17;22.23;;;;;;;;;;10533493;28;20264;-84
2023/10/17 18:15:35;;;;;;;59.43;36.00;;;5.90;99.90;;;;;;10533555;28;20247;-84
2023/10/17 18:20:38;;;;;;;63.67;35.53;;;;;;;;;;10533334;28;20275;-84
2023/10/17 18:25:41;;;;;;;60.47;33.03;;;;;;;;;;10532534;28;20698;-84
2023/10/17 18:30:46;;;;;;;67.10;41.87;;;;;;;;;;10533694;28;20233;-84
2023/10/17 18:35:50;;;;;;;44.97;26.17;;;;;;;;;;10533283;28;20337;-84
2023/10/17 18:40:59;;;;;;;60.37;33.13;;;;;;;;;;10531666;28;20241;-84
2023/10/17 18:46:05;;;;;;;46.90;26.43;;;;;;;;;;10529658;28;20229;-84
2023/10/17 18:51:11;;;;;;;59.60;32.20;;;;;;;;;;10532605;28;20225;-83
2023/10/17 18:56:15;;;;;;;55.17;31.43;;;;;;;;;;10531206;28;20253;-83
2023/10/17 19:01:19;;;;;;;47.73;26.73;;;;;;;;;;10531898;28;20237;-84
2023/10/17 19:06:23;;;;;;;48.90;27.97;;;;;;;;;;10530801;28;20638;-84
2023/10/17 19:11:27;;;;;;;33.27;19.90;;;;;;;;;;10530843;28;20202;-84
2023/10/17 19:16:31;;;;;;;39.07;22.20;;;;;;;;;;10532581;28;20303;-84
2023/10/17 19:21:36;;;;;;;73.73;43.33;;;;;;;;;;10532145;28;20223;-84
2023/10/17 19:26:40;;;;;;;56.27;32.57;;;;;;;;;;10530806;28;20246;-84
2023/10/17 19:31:46;;;;;;;86.00;48.63;;;;;;;;;;10531838;28;20237;-84
2023/10/17 19:36:51;;;;;;;71.37;41.00;;;;;;;;;;10531185;28;20327;-84
2023/10/17 19:41:55;;;;;;;71.67;41.03;;;;;;;;;;10523860;28;20287;-84
2023/10/17 19:46:59;;;;;;;76.27;40.53;;;;;;;;;;10531101;28;20241;-84
2023/10/17 19:52:03;;;;;;;61.77;36.20;;;;;;;;;;10530546;28;20233;-83
2023/10/17 19:57:08;;;;;;;64.50;37.60;;;;;;;;;;10535656;28;20315;-84
2023/10/17 20:02:12;;;;;;;76.60;41.67;;;;;;;;;;10537286;28;20268;-84
2023/10/17 20:07:16;;;;;;;75.97;41.30;;;;;;;;;;10537268;28;20268;-84
2023/10/17 20:12:20;;;;;;;77.17;42.70;;;;;;;;;;10539093;28;20237;-84
2023/10/17 20:17:24;;;;;;;70.77;42.97;;;;;;;;;;10537463;28;20253;-84
2023/10/17 20:22:28;;;;;;;79.77;46.57;;;;;;;;;;10538463;28;20229;-84
2023/10/17 20:27:34;;;;;;;72.87;43.70;;;;;;;;;;10537977;28;20235;-83
2023/10/17 20:32:38;;;;;;;78.43;45.23;;;;;;;;;;10535307;28;20245;-83
2023/10/17 20:37:42;;;;;;;69.37;43.70;;;;;;;;;;10537399;28;20303;-83
2023/10/17 20:42:46;;;;;;;72.40;42.87;;;;;;;;;;10536877;28;20268;-84
2023/10/17 20:47:50;;;;;;;70.60;36.17;;;;;;;;;;10536336;28;20609;-84
2023/10/17 20:52:54;;;;;;;70.43;41.73;;;;;;;;;;10537128;28;20229;-84
2023/10/17 20:57:58;;;;;;;67.97;38.73;;;;;;;;;;10536241;28;20676;-84
2023/10/17 21:03:03;;;;;;;60.77;36.53;;;;;;;;;;10536632;28;20229;-84
2023/10/17 21:08:08;;;;;;;64.87;39.13;;;;;;;;;;10534310;28;20904;-83
2023/10/17 21:13:13;;;;;;;61.17;37.27;;;;;;;;;;10500139;28;21000;-84
2023/10/17 21:18:18;;;;;;;72.50;41.17;;;;;;;;;;10517747;28;20646;-83
2023/10/17 21:23:21;;;;;;;73.83;41.67;;;;;;;;;;10535610;28;20225;-84
2023/10/17 21:28:25;;;;;;;71.30;40.70;;;;;;;;;;10534838;28;20334;-84
2023/10/17 21:33:31;;;;;;;57.63;35.17;;;;;;;;;;10535651;28;20237;-83
2023/10/17 21:38:37;;;;;;;61.23;39.77;;;;;;;;;;10496403;28;20281;-84
2023/10/17 21:43:41;;;;;;;64.93;40.00;;;;;;;;;;10491693;28;20237;-84
2023/10/17 21:48:45;;;;;;;69.73;41.57;;;;;;;;;;10530419;28;20229;-84
2023/10/17 21:53:49;;;;;;;63.93;37.37;;;;;;;;;;10495796;28;20233;-84
2023/10/17 21:58:53;;;;;;;46.43;32.07;;;;;;;;;;10530083;28;20326;-84
2023/10/17 22:03:57;;;;;;;65.97;38.60;;;;;;;;;;10533306;28;20265;-84
2023/10/17 22:09:01;;;;;;;64.37;37.27;;;;;;;;;;10514711;28;20298;-84
2023/10/17 22:14:06;;;;;;;61.37;36.93;;;;;;;;;;10532038;28;20260;-84
2023/10/17 22:19:10;;;;;;;61.53;38.20;;;;;;;;;;10532474;28;20311;-84
2023/10/17 22:24:14;;;;;;;62.47;38.33;;;;;;;;;;10532975;28;20254;-84
2023/10/17 22:29:18;;;;;;;63.73;38.90;;;;;;;;;;10525903;28;20286;-85
2023/10/17 22:34:22;;;;;;;82.80;46.23;;;;;;;;;;10532602;28;20263;-84
2023/10/17 22:39:27;;;;;;;78.40;44.20;;;;;;;;;;10532652;28;20344;-84
2023/10/17 22:44:31;;;;;;;91.93;49.37;;;;;;;;;;10532223;28;20228;-84
2023/10/17 22:49:34;;;;;;;83.50;48.50;;;;;;;;;;10530152;28;20233;-84
2023/10/17 22:54:38;;;;;;;88.87;48.03;;;;;;;;;;10531393;28;20209;-84
2023/10/17 22:59:42;;;;;;;74.67;43.57;;;;;;;;;;10532226;28;20249;-84
2023/10/17 23:04:46;;;;;;;77.67;45.43;;;;;;;;;;10531014;28;20261;-84
2023/10/17 23:09:50;;;;;;;94.93;53.77;;;;;;;;;;10530512;28;20251;-84
2023/10/17 23:14:54;;;;;;;96.07;55.27;;;;;;;;;;10532272;28;20228;-85
2023/10/17 23:19:58;;;;;;;88.80;47.57;;;;;;;;;;10531744;28;20330;-85
2023/10/17 23:25:02;;;;;;;97.17;54.20;;;;;;;;;;10531903;28;20289;-84
2023/10/17 23:30:11;;;;;;;90.10;50.73;;;;;;;;;;10531981;28;20229;-84
2023/10/17 23:35:15;;;;;;;83.90;49.20;;;;;;;;;;10498507;28;20229;-84
2023/10/17 23:40:20;;;;;;;89.53;50.33;;;;;;;;;;10498313;28;20299;-84
2023/10/17 23:45:24;;;;;;;88.37;51.67;;;;;;;;;;10500211;28;20944;-85
2023/10/17 23:50:27;;;;;;;102.20;53.93;;;;;;;;;;10538358;28;20245;-84
2023/10/17 23:55:31;;;;;;;84.63;51.13;;;;;;;;;;10538932;28;20237;-84
